Time;durP1;ratioP1;P1;durP2;ratioP2;P2;SDS_P1;SDS_P2;PMS_P1;PMS_P2;Temp;Humidity;BMP_temperature;BMP_pressure;BME280_temperature;BME280_humidity;BME280_pressure;Samples;Min_cycle;Max_cycle;Signal;HPM_P1;HPM_P2
2023/05/02 00:00:44;;;;;;;27.23;19.35;;;;;;;12.96;73.97;101728.53;3611325;39;20058;-66
2023/05/02 00:03:11;;;;;;;28.27;18.42;;;;;;;12.97;73.97;101740.19;3611010;39;20120;-66
2023/05/02 00:05:37;;;;;;;25.88;18.60;;;;;;;12.98;73.79;101741.97;3604304;39;20063;-68
2023/05/02 00:08:02;;;;;;;32.35;20.10;;;;;;;12.77;73.67;101707.13;3607228;39;20065;-66
2023/05/02 00:10:28;;;;;;;27.17;19.20;;;;;;;13.01;73.87;101748.06;3607864;39;20123;-66
2023/05/02 00:12:54;;;;;;;26.52;18.73;;;;;;;13.04;73.99;101765.03;3610670;39;20405;-68
2023/05/02 00:15:20;;;;;;;25.98;19.02;;;;;;;13.06;73.38;101758.56;3608298;39;20062;-67
2023/05/02 00:17:46;;;;;;;27.65;19.08;;;;;;;13.06;73.48;101761.28;3606761;39;20289;-67
2023/05/02 00:20:12;;;;;;;28.23;19.52;;;;;;;13.04;73.70;101763.22;3604631;39;20063;-67
2023/05/02 00:22:39;;;;;;;27.80;19.45;;;;;;;12.87;73.56;101733.59;3606832;39;20050;-67
2023/05/02 00:25:06;;;;;;;27.92;19.40;;;;;;;13.02;73.79;101767.81;3606924;39;20086;-67
2023/05/02 00:27:32;;;;;;;25.90;18.88;;;;;;;13.04;73.67;101763.22;3608311;39;20051;-67
2023/05/02 00:29:59;;;;;;;28.90;19.95;;;;;;;12.85;73.93;101727.44;3608685;39;20063;-67
2023/05/02 00:32:25;;;;;;;26.85;19.45;;;;;;;13.10;73.74;101770.97;3608588;39;20047;-67
2023/05/02 00:34:51;;;;;;;26.83;19.38;;;;;;;13.13;73.53;101772.59;3608802;39;20079;-66
2023/05/02 00:37:16;;;;;;;27.65;18.67;;;;;;;13.13;73.70;101772.59;3610397;39;20480;-67
2023/05/02 00:39:43;;;;;;;25.48;19.55;;;;;;;13.14;73.43;101780.59;3609114;39;20051;-67
2023/05/02 00:42:09;;;;;;;26.45;18.52;;;;;;;13.13;73.24;101778.88;3607329;39;20043;-68
2023/05/02 00:44:35;;;;;;;24.98;17.70;;;;;;;13.08;73.50;101764.75;3610494;39;20070;-67
2023/05/02 00:47:01;;;;;;;24.05;18.27;;;;;;;12.88;73.31;101735.34;3609921;39;20054;-67
2023/05/02 00:49:27;;;;;;;28.33;18.20;;;;;;;13.12;73.27;101773.56;3610592;39;20510;-67
2023/05/02 00:51:53;;;;;;;23.27;16.38;;;;;;;13.08;73.46;101775.56;3610548;39;20047;-67
2023/05/02 00:54:19;;;;;;;24.25;15.40;;;;;;;13.03;72.57;101774.94;3610177;39;20078;-67
2023/05/02 00:56:46;;;;;;;23.05;15.80;;;;;;;12.98;73.33;101777.91;3610159;39;20057;-67
2023/05/02 00:59:13;;;;;;;21.15;15.05;;;;;;;12.97;73.01;101781.59;3611493;39;20050;-66
2023/05/02 01:02:09;;;;;;;21.95;14.82;;;;;;;12.94;72.55;101788.94;3601981;39;20121;-67
2023/05/02 01:05:09;;;;;;;21.00;14.40;;;;;;;12.86;72.85;101775.03;3608704;39;20050;-66
2023/05/02 01:08:02;;;;;;;23.08;15.45;;;;;;;12.87;72.84;101782.16;3610260;39;20116;-67
2023/05/02 01:11:29;;;;;;;22.33;14.23;;;;;;;12.86;73.17;101785.84;3611723;39;20050;-66
2023/05/02 01:14:00;;;;;;;21.50;14.40;;;;;;;12.82;73.85;101781.56;3606109;39;20055;-67
2023/05/02 01:16:27;;;;;;;20.58;14.68;;;;;;;12.83;73.00;101770.69;3611865;39;20063;-67
2023/05/02 01:18:55;;;;;;;19.60;14.68;;;;;;;12.82;73.17;101778.88;3611347;39;20095;-67
2023/05/02 01:21:22;;;;;;;21.50;12.55;;;;;;;12.71;72.63;101783.03;3599167;39;20054;-67
2023/05/02 01:23:53;;;;;;;17.67;11.52;;;;;;;12.64;72.84;101780.75;3611150;39;20274;-67
2023/05/02 01:26:58;;;;;;;16.95;10.57;;;;;;;12.51;72.27;101785.97;3610840;39;20070;-67
2023/05/02 01:29:28;;;;;;;17.05;11.00;;;;;;;12.42;73.38;101783.75;3610223;39;20059;-66
2023/05/02 01:31:59;;;;;;;15.55;10.52;;;;;;;12.37;72.60;101780.44;3599997;39;20085;-66
2023/05/02 01:34:30;;;;;;;14.98;10.43;;;;;;;12.35;72.77;101782.34;3611564;39;20135;-66
2023/05/02 01:36:59;;;;;;;17.50;11.00;;;;;;;12.32;73.10;101789.66;3608706;39;20054;-67
2023/05/02 01:39:26;;;;;;;14.68;10.27;;;;;;;12.26;73.75;101775.63;3611762;39;20067;-66
2023/05/02 01:41:57;;;;;;;14.88;10.32;;;;;;;12.28;74.17;101779.13;3611378;39;20047;-67
2023/05/02 01:44:26;;;;;;;13.77;10.07;;;;;;;12.24;73.73;101785.59;3609947;39;20044;-66
2023/05/02 01:46:56;;;;;;;15.15;10.77;;;;;;;12.22;73.84;101790.22;3612046;39;20099;-66
2023/05/02 01:49:24;;;;;;;16.45;10.25;;;;;;;12.18;74.79;101794.03;3610297;39;20069;-66
2023/05/02 01:51:52;;;;;;;16.88;10.57;;;;;;;12.17;74.70;101794.97;3611762;39;20043;-67
2023/05/02 01:54:23;;;;;;;15.65;10.35;;;;;;;12.13;74.87;101790.72;3610131;39;20138;-67
2023/05/02 01:56:51;;;;;;;15.10;9.50;;;;;;;12.13;75.21;101791.59;3610011;39;20119;-67
2023/05/02 01:59:22;;;;;;;13.77;10.48;;;;;;;12.16;74.79;101801.34;3609559;39;20043;-67
2023/05/02 02:01:51;;;;;;;15.30;9.82;;;;;;;12.18;75.12;101800.31;3600638;39;20054;-67
2023/05/02 02:04:20;;;;;;;15.65;10.27;;;;;;;12.20;75.17;101811.00;3610620;39;20063;-67
2023/05/02 02:06:57;;;;;;;14.68;10.50;;;;;;;12.22;75.33;101807.28;3610128;39;20063;-66
2023/05/02 02:09:23;;;;;;;14.85;10.38;;;;;;;12.26;74.83;101813.38;3610738;39;20120;-67
2023/05/02 02:12:10;;;;;;;13.55;10.38;;;;;;;12.26;74.88;101818.75;3611186;39;20047;-67
2023/05/02 02:14:41;;;;;;;14.93;10.82;;;;;;;12.28;75.11;101825.81;3609906;39;20448;-66
2023/05/02 02:17:28;;;;;;;18.40;11.57;;;;;;;12.28;74.75;101820.44;3608457;39;20062;-65
2023/05/02 02:20:00;;;;;;;15.43;10.52;;;;;;;12.28;74.79;101822.25;3609489;39;20120;-66
2023/05/02 02:22:29;;;;;;;15.35;10.52;;;;;;;12.29;75.27;101827.56;3611013;39;20060;-68
2023/05/02 02:24:58;;;;;;;18.00;12.05;;;;;;;12.28;75.62;101833.03;3609290;39;20103;-66
2023/05/02 02:27:24;;;;;;;15.90;11.32;;;;;;;12.30;75.83;101832.00;3609516;39;20055;-66
2023/05/02 02:29:50;;;;;;;18.50;12.52;;;;;;;12.29;75.15;101835.63;3610841;39;20061;-66
2023/05/02 02:32:15;;;;;;;17.40;12.05;;;;;;;12.28;75.39;101833.91;3609611;39;20072;-66
2023/05/02 02:34:41;;;;;;;18.05;12.52;;;;;;;12.29;75.92;101835.63;3597057;39;20047;-66
2023/05/02 02:37:15;;;;;;;15.85;12.20;;;;;;;12.29;75.47;101830.25;3610413;39;20047;-65
2023/05/02 02:40:07;;;;;;;18.65;12.68;;;;;;;12.30;75.81;101840.09;3610274;39;20135;-65
2023/05/02 02:42:54;;;;;;;19.95;11.98;;;;;;;12.27;75.30;101832.19;3610624;39;20447;-66
2023/05/02 02:46:13;;;;;;;19.25;12.45;;;;;;;12.28;75.32;101839.31;3611164;39;21745;-69
2023/05/02 02:49:25;;;;;;;18.48;12.43;;;;;;;12.28;76.15;101842.00;3607312;39;20296;-66
2023/05/02 02:52:15;;;;;;;16.55;12.80;;;;;;;12.29;75.46;101843.72;3609089;39;20051;-68
2023/05/02 02:54:58;;;;;;;15.65;11.98;;;;;;;12.28;75.83;101838.44;3610151;39;20070;-66
2023/05/02 02:57:56;;;;;;;17.23;12.38;;;;;;;12.25;75.48;101846.69;3607183;39;20066;-66
2023/05/02 03:00:28;;;;;;;17.55;12.07;;;;;;;12.26;76.55;101856.50;3608977;39;21161;-68
2023/05/02 03:02:55;;;;;;;15.38;12.00;;;;;;;12.26;76.25;101857.38;3608677;39;20051;-68
2023/05/02 03:05:22;;;;;;;19.02;12.85;;;;;;;12.27;76.47;101859.13;3608104;39;20071;-68
2023/05/02 03:07:48;;;;;;;13.70;11.05;;;;;;;12.26;76.60;101851.09;3609348;39;20486;-68
2023/05/02 03:10:14;;;;;;;18.00;11.35;;;;;;;12.32;76.26;101870.53;3609279;39;20070;-66
2023/05/02 03:12:40;;;;;;;17.33;12.13;;;;;;;12.31;76.18;101871.50;3597956;39;20058;-67
2023/05/02 03:15:46;;;;;;;17.25;12.15;;;;;;;12.32;76.63;101873.22;3608929;39;20077;-66
2023/05/02 03:18:12;;;;;;;13.55;10.75;;;;;;;12.32;76.16;101889.41;3608944;39;20081;-66
2023/05/02 03:20:38;;;;;;;16.58;11.07;;;;;;;12.30;76.95;101885.94;3609468;39;20432;-67
2023/05/02 03:23:03;;;;;;;16.60;11.45;;;;;;;12.32;76.62;101881.31;3599794;39;20047;-67
2023/05/02 03:25:29;;;;;;;14.88;10.95;;;;;;;12.34;77.19;101892.03;3608538;39;20066;-66
2023/05/02 03:27:57;;;;;;;14.93;10.55;;;;;;;12.34;77.19;101892.03;3610561;39;20061;-67
2023/05/02 03:30:22;;;;;;;17.77;10.77;;;;;;;12.37;76.94;101890.97;3609019;39;20043;-67
2023/05/02 03:32:48;;;;;;;15.93;10.15;;;;;;;12.37;77.02;101891.88;3608933;39;20062;-67
2023/05/02 03:35:14;;;;;;;13.25;10.23;;;;;;;12.38;76.95;101885.53;3608325;39;20057;-67
2023/05/02 03:37:40;;;;;;;18.35;11.07;;;;;;;12.36;77.09;101889.25;3610215;39;20349;-67
2023/05/02 03:40:06;;;;;;;16.17;9.90;;;;;;;12.34;78.19;101896.53;3605600;39;20067;-66
2023/05/02 03:42:40;;;;;;;15.00;11.43;;;;;;;12.33;78.54;101884.88;3608931;39;20586;-66
2023/05/02 03:45:07;;;;;;;18.73;10.98;;;;;;;12.34;78.34;101896.53;3606790;39;20062;-66
2023/05/02 03:47:33;;;;;;;17.23;11.20;;;;;;;12.22;78.45;101873.81;3609918;39;20127;-66
2023/05/02 03:49:59;;;;;;;19.33;10.65;;;;;;;12.31;78.50;101893.06;3609947;39;20049;-67
2023/05/02 03:52:25;;;;;;;16.20;11.25;;;;;;;12.05;78.36;101851.28;3608970;39;20391;-66
2023/05/02 03:54:51;;;;;;;16.83;10.73;;;;;;;12.35;78.76;101903.69;3607949;39;20059;-67
2023/05/02 03:57:17;;;;;;;17.40;11.07;;;;;;;12.34;78.29;101908.22;3608586;39;20055;-67
2023/05/02 03:59:44;;;;;;;15.52;10.70;;;;;;;12.35;78.35;101911.78;3610173;39;20050;-67
2023/05/02 04:02:10;;;;;;;14.20;9.60;;;;;;;12.25;78.38;101906.00;3608139;39;20063;-67
2023/05/02 04:04:37;;;;;;;15.30;8.80;;;;;;;12.28;77.83;101920.19;3608675;39;20047;-66
2023/05/02 04:07:04;;;;;;;13.82;8.93;;;;;;;12.28;77.01;101930.09;3606741;39;20051;-66
2023/05/02 04:09:29;;;;;;;13.57;8.65;;;;;;;12.29;76.53;101921.91;3607625;39;20113;-65
2023/05/02 04:11:55;;;;;;;14.02;9.02;;;;;;;12.28;77.21;101924.69;3608699;39;20369;-66
2023/05/02 04:14:21;;;;;;;14.27;8.10;;;;;;;12.06;76.83;101893.44;3605854;39;20067;-66
2023/05/02 04:16:48;;;;;;;11.25;7.45;;;;;;;12.29;76.03;101934.53;3608830;39;20228;-65
2023/05/02 04:19:15;;;;;;;13.55;7.32;;;;;;;12.28;75.71;101936.34;3606656;39;21860;-66
2023/05/02 04:21:41;;;;;;;9.85;5.80;;;;;;;12.27;74.75;101937.31;3601923;39;20110;-66
2023/05/02 04:24:08;;;;;;;12.32;5.43;;;;;;;12.13;74.27;101929.03;3607129;39;20366;-66
2023/05/02 04:26:33;;;;;;;11.77;4.75;;;;;;;11.93;73.91;101891.47;3606193;39;20389;-66
2023/05/02 04:28:59;;;;;;;11.48;4.60;;;;;;;12.20;73.18;101960.13;3607981;39;20047;-66
2023/05/02 04:31:26;;;;;;;10.80;5.00;;;;;;;12.19;73.05;101958.38;3607927;39;20378;-67
2023/05/02 04:33:51;;;;;;;12.90;5.03;;;;;;;12.16;73.47;101963.94;3608247;39;20515;-68
2023/05/02 04:36:18;;;;;;;11.13;4.78;;;;;;;12.19;72.75;101968.31;3606752;39;20070;-69
2023/05/02 04:38:43;;;;;;;9.68;4.53;;;;;;;12.18;72.84;101978.22;3607203;39;20051;-69
2023/05/02 04:41:10;;;;;;;12.68;4.55;;;;;;;12.12;73.00;101967.75;3607711;39;20082;-69
2023/05/02 04:43:36;;;;;;;5.93;2.80;;;;;;;12.05;69.44;101990.53;3608404;39;20071;-69
2023/05/02 04:46:01;;;;;;;7.45;1.95;;;;;;;11.93;66.76;101981.25;3606543;39;20050;-69
2023/05/02 04:48:27;;;;;;;5.50;2.38;;;;;;;11.88;66.93;101990.50;3609172;39;20047;-69
2023/05/02 04:50:52;;;;;;;6.68;2.38;;;;;;;11.88;65.64;102001.28;3612700;39;20051;-68
2023/05/02 04:53:21;;;;;;;5.72;2.42;;;;;;;11.29;65.35;101900.81;3608792;39;20062;-68
2023/05/02 04:55:47;;;;;;;8.85;2.40;;;;;;;11.91;65.12;102006.53;3608335;39;20070;-68
2023/05/02 04:58:12;;;;;;;5.90;1.75;;;;;;;11.93;64.96;102012.72;3605885;39;20342;-68
2023/05/02 05:00:38;;;;;;;7.85;2.20;;;;;;;11.92;64.30;102013.66;3605092;39;20055;-68
2023/05/02 05:03:05;;;;;;;3.63;1.70;;;;;;;11.72;64.00;101991.19;3606964;39;20090;-68
2023/05/02 05:05:31;;;;;;;5.18;1.90;;;;;;;11.87;64.32;102013.00;3608985;39;20051;-68
2023/05/02 05:07:57;;;;;;;5.30;1.88;;;;;;;11.88;63.90;102017.44;3610303;39;20294;-68
2023/05/02 05:10:22;;;;;;;5.22;1.92;;;;;;;11.79;64.33;102014.19;3608274;39;20082;-68
2023/05/02 05:12:48;;;;;;;4.10;1.83;;;;;;;11.83;64.08;102034.69;3608629;39;20090;-68
2023/05/02 05:15:15;;;;;;;5.60;1.60;;;;;;;11.84;64.63;102035.56;3608836;39;20106;-68
2023/05/02 05:17:41;;;;;;;4.10;1.70;;;;;;;11.81;64.34;102033.00;3609054;39;20059;-68
2023/05/02 05:20:09;;;;;;;4.55;2.03;;;;;;;11.82;63.90;102046.38;3606399;39;20089;-68
2023/05/02 05:22:41;;;;;;;7.68;2.22;;;;;;;11.81;63.92;102052.72;3608279;39;20065;-68
2023/05/02 05:25:08;;;;;;;5.80;1.95;;;;;;;11.79;63.94;102046.53;3607477;39;20062;-68
2023/05/02 05:27:35;;;;;;;7.70;1.83;;;;;;;11.71;63.53;102035.25;3608019;39;20377;-68
2023/05/02 05:30:01;;;;;;;6.38;2.10;;;;;;;11.82;63.84;102054.47;3608422;39;20063;-68
2023/05/02 05:32:28;;;;;;;5.95;1.85;;;;;;;11.78;63.72;102052.00;3607645;39;20370;-68
2023/05/02 05:34:54;;;;;;;7.15;1.90;;;;;;;11.52;63.84;101983.22;3608550;39;20047;-68
2023/05/02 05:37:20;;;;;;;4.82;2.22;;;;;;;11.96;63.67;102050.28;3606095;39;20294;-68
2023/05/02 05:39:47;;;;;;;4.22;1.70;;;;;;;12.04;62.07;102062.44;3609906;39;20112;-68
2023/05/02 05:42:13;;;;;;;4.63;1.67;;;;;;;12.12;62.50;102053.13;3611055;39;20051;-68
2023/05/02 05:44:39;;;;;;;5.65;1.75;;;;;;;12.14;62.04;102067.38;3597865;39;20346;-68
2023/05/02 05:47:05;;;;;;;8.65;2.40;;;;;;;12.14;61.38;102068.25;3607335;39;20058;-69
2023/05/02 05:49:31;;;;;;;5.95;1.85;;;;;;;12.12;61.27;102064.78;3608859;39;20055;-68
2023/05/02 05:51:57;;;;;;;5.18;1.75;;;;;;;12.08;61.14;102069.44;3607950;39;20051;-68
2023/05/02 05:54:23;;;;;;;4.43;2.20;;;;;;;12.04;62.13;102067.81;3609478;39;20103;-68
2023/05/02 05:56:48;;;;;;;3.25;1.80;;;;;;;11.93;61.92;102059.41;3605992;39;20668;-68
2023/05/02 05:59:14;;;;;;;4.50;2.10;;;;;;;11.98;62.25;102078.03;3608055;39;20441;-68
2023/05/02 06:01:40;;;;;;;6.18;2.17;;;;;;;11.99;61.43;102077.09;3606571;39;20103;-68
2023/05/02 06:04:06;;;;;;;6.43;2.20;;;;;;;11.96;62.13;102082.63;3608742;39;20408;-68
2023/05/02 06:06:32;;;;;;;5.82;1.85;;;;;;;11.98;61.71;102083.41;3606221;39;20493;-68
2023/05/02 06:08:58;;;;;;;5.40;1.67;;;;;;;11.82;60.62;102062.53;3608269;39;20063;-68
2023/05/02 06:11:25;;;;;;;5.78;1.95;;;;;;;12.03;60.79;102093.03;3608603;39;20051;-68
2023/05/02 06:13:51;;;;;;;4.43;1.60;;;;;;;12.13;59.97;102096.16;3609145;39;20043;-68
2023/05/02 06:16:17;;;;;;;4.70;1.70;;;;;;;12.21;59.29;102101.16;3609134;39;20063;-68
2023/05/02 06:18:44;;;;;;;3.63;1.73;;;;;;;12.28;59.23;102100.81;3603770;39;20061;-68
2023/05/02 06:21:10;;;;;;;4.95;2.10;;;;;;;12.36;59.49;102104.97;3607306;39;20067;-68
2023/05/02 06:23:36;;;;;;;6.20;1.92;;;;;;;12.45;58.95;102109.91;3609169;39;20061;-68
2023/05/02 06:26:03;;;;;;;5.07;1.70;;;;;;;12.51;57.63;102104.22;3610891;39;20280;-68
2023/05/02 06:28:30;;;;;;;4.30;1.75;;;;;;;12.57;57.10;102113.81;3609285;39;20047;-68
2023/05/02 06:31:00;;;;;;;4.65;1.85;;;;;;;12.57;56.62;102120.09;3607701;39;20074;-69
2023/05/02 06:33:30;;;;;;;5.88;1.83;;;;;;;12.63;57.03;102124.31;3608190;39;20043;-68
2023/05/02 06:35:56;;;;;;;8.23;2.05;;;;;;;12.73;57.68;102125.59;3608939;39;20128;-68
2023/05/02 06:38:23;;;;;;;5.35;1.75;;;;;;;12.58;56.37;102088.59;3607295;39;20066;-68
2023/05/02 06:40:50;;;;;;;4.28;1.88;;;;;;;12.96;56.67;102144.19;3609764;39;20051;-68
2023/05/02 06:43:16;;;;;;;5.47;1.67;;;;;;;13.05;55.63;102147.38;3610136;39;20351;-68
2023/05/02 06:45:43;;;;;;;6.03;2.05;;;;;;;13.12;55.67;102157.78;3608180;39;20074;-68
2023/05/02 06:48:09;;;;;;;8.88;2.20;;;;;;;13.16;56.23;102162.09;3608541;39;20204;-68
2023/05/02 06:50:36;;;;;;;5.90;1.73;;;;;;;13.30;55.96;102158.69;3606592;39;20047;-68
2023/05/02 06:53:03;;;;;;;5.75;1.88;;;;;;;13.53;56.69;102165.59;3608397;39;20051;-68
2023/05/02 06:55:29;;;;;;;9.35;2.30;;;;;;;13.58;55.56;102171.63;3609367;39;20054;-68
2023/05/02 06:57:55;;;;;;;6.93;2.45;;;;;;;13.55;55.85;102163.69;3607080;39;20051;-68
2023/05/02 07:00:21;;;;;;;5.32;2.17;;;;;;;13.50;56.04;102171.16;3609334;39;20046;-68
2023/05/02 07:02:48;;;;;;;7.65;2.10;;;;;;;13.54;56.44;102172.75;3608397;39;20162;-69
2023/05/02 07:05:15;;;;;;;6.72;2.45;;;;;;;13.67;55.65;102178.38;3608985;39;20394;-68
2023/05/02 07:07:43;;;;;;;6.90;1.88;;;;;;;13.80;55.28;102179.47;3607088;39;20086;-68
2023/05/02 07:10:11;;;;;;;7.03;2.10;;;;;;;13.97;55.03;102181.25;3608389;39;20282;-68
2023/05/02 07:12:40;;;;;;;7.82;2.60;;;;;;;14.09;54.78;102177.88;3607734;39;20107;-68
2023/05/02 07:15:07;;;;;;;11.35;2.10;;;;;;;14.24;54.16;102186.09;3608853;39;20381;-68
2023/05/02 07:17:32;;;;;;;8.48;2.35;;;;;;;14.14;54.39;102154.19;3609386;39;20053;-68
2023/05/02 07:19:58;;;;;;;9.75;2.38;;;;;;;14.58;53.95;102188.69;3607226;39;20248;-68
2023/05/02 07:22:23;;;;;;;7.80;2.40;;;;;;;14.71;52.64;102205.09;3609749;39;20317;-68
2023/05/02 07:25:01;;;;;;;6.35;2.15;;;;;;;14.71;52.33;102201.53;3606808;39;20062;-69
2023/05/02 07:27:28;;;;;;;5.20;2.10;;;;;;;14.60;52.10;102205.72;3610402;39;20051;-68
2023/05/02 07:29:54;;;;;;;7.95;2.63;;;;;;;14.51;52.61;102208.06;3607442;39;20059;-68
2023/05/02 07:32:24;;;;;;;10.25;2.28;;;;;;;14.38;52.27;102213.25;3607395;39;20057;-68
2023/05/02 07:34:53;;;;;;;8.98;2.30;;;;;;;14.19;52.69;102216.13;3610965;39;20116;-68
2023/05/02 07:37:20;;;;;;;12.98;2.78;;;;;;;13.84;53.46;102186.44;3610539;39;20425;-68
2023/05/02 07:39:45;;;;;;;6.47;2.25;;;;;;;13.91;53.44;102220.31;3608121;39;20065;-68
2023/05/02 07:42:11;;;;;;;10.80;3.00;;;;;;;13.79;53.05;102220.09;3608755;39;20504;-68
2023/05/02 07:44:37;;;;;;;9.27;2.55;;;;;;;13.80;53.23;102222.72;3608804;39;20047;-68
2023/05/02 07:47:02;;;;;;;8.48;2.50;;;;;;;13.99;54.10;102222.63;3608738;39;20055;-68
2023/05/02 07:49:28;;;;;;;12.00;3.20;;;;;;;14.13;53.73;102233.53;3608472;39;20055;-68
2023/05/02 07:51:55;;;;;;;7.57;2.58;;;;;;;14.17;52.96;102235.09;3609876;39;20051;-68
2023/05/02 07:54:21;;;;;;;7.88;2.60;;;;;;;14.18;52.58;102227.91;3606990;39;20169;-68
2023/05/02 07:56:47;;;;;;;10.35;2.55;;;;;;;14.17;52.62;102243.22;3606727;39;20055;-68
2023/05/02 07:59:13;;;;;;;6.30;2.40;;;;;;;14.04;52.29;102235.88;3608652;39;20321;-68
2023/05/02 08:01:40;;;;;;;7.25;2.35;;;;;;;13.88;52.88;102235.81;3606426;39;20051;-69
2023/05/02 08:04:07;;;;;;;6.93;2.38;;;;;;;13.74;53.07;102238.38;3608269;39;20059;-68
2023/05/02 08:06:33;;;;;;;11.15;3.28;;;;;;;13.56;53.69;102240.22;3607011;39;20051;-68
2023/05/02 08:08:58;;;;;;;9.70;2.55;;;;;;;13.34;54.59;102245.84;3606303;39;20065;-68
2023/05/02 08:11:24;;;;;;;8.30;3.00;;;;;;;13.24;55.73;102251.69;3608010;39;20046;-68
2023/05/02 08:13:51;;;;;;;12.55;3.03;;;;;;;13.11;54.74;102245.13;3607639;39;20072;-68
2023/05/02 08:16:18;;;;;;;11.02;2.85;;;;;;;12.73;54.24;102218.19;3609222;39;20474;-68
2023/05/02 08:18:45;;;;;;;7.60;2.75;;;;;;;12.73;54.21;102244.31;3607133;39;20074;-68
2023/05/02 08:21:10;;;;;;;7.70;2.65;;;;;;;12.69;53.73;102259.78;3607931;39;20082;-68
2023/05/02 08:23:38;;;;;;;4.75;1.92;;;;;;;12.59;54.09;102262.97;3607839;39;20333;-68
2023/05/02 08:26:04;;;;;;;8.55;2.65;;;;;;;12.55;53.57;102267.63;3610519;39;20058;-68
2023/05/02 08:28:30;;;;;;;7.55;2.67;;;;;;;12.58;54.88;102278.28;3606204;39;20067;-68
2023/05/02 08:30:56;;;;;;;6.47;2.53;;;;;;;12.65;54.63;102279.75;3606321;39;20047;-68
2023/05/02 08:33:22;;;;;;;8.50;3.28;;;;;;;12.58;54.30;102256.72;3606773;39;20069;-69
2023/05/02 08:35:48;;;;;;;13.73;5.13;;;;;;;12.66;54.08;102273.41;3606083;39;20055;-68
2023/05/02 08:38:14;;;;;;;11.25;4.90;;;;;;;12.80;53.74;102288.06;3607065;39;20359;-68
2023/05/02 08:40:39;;;;;;;6.97;2.67;;;;;;;12.87;53.69;102289.53;3605852;39;20159;-68
2023/05/02 08:43:05;;;;;;;8.10;2.95;;;;;;;12.96;53.73;102289.94;3610597;39;20167;-67
2023/05/02 08:45:39;;;;;;;8.85;2.70;;;;;;;13.14;53.32;102293.59;3608268;39;20359;-68
2023/05/02 08:48:12;;;;;;;7.13;2.75;;;;;;;13.34;52.70;102284.53;3607907;39;20077;-71
2023/05/02 08:50:40;;;;;;;9.27;2.90;;;;;;;13.42;51.65;102286.84;3598335;39;20047;-69
2023/05/02 08:53:08;;;;;;;9.15;2.63;;;;;;;13.68;51.13;102301.72;3607012;39;20115;-68
2023/05/02 08:55:41;;;;;;;7.95;2.70;;;;;;;13.82;50.45;102301.00;3610022;39;20082;-68
2023/05/02 08:58:10;;;;;;;6.38;2.00;;;;;;;13.96;48.85;102301.19;3607190;39;20136;-68
2023/05/02 09:00:41;;;;;;;4.28;2.38;;;;;;;14.04;48.32;102301.63;3607135;39;20057;-68
2023/05/02 09:03:30;;;;;;;10.50;2.50;;;;;;;14.06;48.04;102305.13;3608426;39;20065;-68
2023/05/02 09:06:08;;;;;;;8.02;2.95;;;;;;;14.16;47.30;102311.81;3609959;39;20079;-69
2023/05/02 09:08:39;;;;;;;9.40;2.40;;;;;;;14.30;48.24;102318.28;3610116;39;20054;-68
2023/05/02 09:11:08;;;;;;;8.27;2.78;;;;;;;14.50;46.63;102315.41;3608599;39;20306;-69
2023/05/02 09:13:37;;;;;;;6.75;2.70;;;;;;;14.74;48.24;102323.16;3609824;39;20058;-68
2023/05/02 09:16:06;;;;;;;8.10;2.35;;;;;;;14.92;46.98;102318.56;3608324;39;20067;-68
2023/05/02 09:18:42;;;;;;;8.73;2.75;;;;;;;15.17;47.92;102308.06;3608052;39;20058;-67
2023/05/02 09:21:16;;;;;;;6.82;2.75;;;;;;;15.68;46.12;102321.41;3608529;39;20393;-69
2023/05/02 09:23:49;;;;;;;6.70;2.08;;;;;;;15.90;45.21;102321.00;3608630;39;20386;-68
2023/05/02 09:26:32;;;;;;;6.05;2.22;;;;;;;16.18;44.14;102325.63;3609951;39;20053;-69
2023/05/02 09:29:02;;;;;;;8.13;3.10;;;;;;;16.20;44.14;102319.09;3608999;39;20054;-67
2023/05/02 09:31:36;;;;;;;4.85;2.17;;;;;;;16.13;43.14;102322.31;3608364;39;20059;-68
2023/05/02 09:34:14;;;;;;;9.60;2.70;;;;;;;16.10;41.98;102325.19;3611043;39;20051;-68
2023/05/02 09:36:46;;;;;;;6.68;2.30;;;;;;;16.12;42.74;102324.16;3607090;39;20059;-67
2023/05/02 09:39:15;;;;;;;4.63;2.17;;;;;;;16.11;42.08;102335.06;3608769;39;20055;-67
2023/05/02 09:41:44;;;;;;;5.00;2.35;;;;;;;15.83;42.09;102336.75;3608039;39;20047;-68
2023/05/02 09:44:12;;;;;;;5.30;2.40;;;;;;;15.60;43.73;102343.50;3610267;39;20367;-68
2023/05/02 09:46:44;;;;;;;4.72;1.92;;;;;;;15.44;43.48;102346.22;3608450;39;20108;-69
2023/05/02 09:49:10;;;;;;;7.90;2.72;;;;;;;15.27;43.12;102349.91;3609667;39;20050;-68
2023/05/02 09:51:37;;;;;;;5.55;2.05;;;;;;;14.90;43.54;102302.38;3610104;39;20046;-68
2023/05/02 09:54:03;;;;;;;6.03;2.30;;;;;;;15.16;44.35;102316.28;3609698;39;20401;-69
2023/05/02 09:56:29;;;;;;;7.43;1.95;;;;;;;15.80;44.07;102347.78;3607102;39;20052;-68
2023/05/02 09:59:15;;;;;;;6.03;2.17;;;;;;;16.25;42.74;102348.69;3610532;39;20934;-68
2023/05/02 10:01:42;;;;;;;4.53;2.00;;;;;;;16.63;42.19;102310.13;3609011;39;20059;-69
2023/05/02 10:04:15;;;;;;;7.10;2.28;;;;;;;17.19;41.45;102340.94;3611153;39;20062;-69
2023/05/02 10:06:43;;;;;;;7.60;2.30;;;;;;;17.47;41.35;102344.53;3608891;39;20420;-67
2023/05/02 10:09:11;;;;;;;6.25;2.65;;;;;;;17.50;39.10;102347.03;3609778;39;20124;-67
2023/05/02 10:11:43;;;;;;;8.95;2.53;;;;;;;17.08;38.87;102341.63;3607975;39;20059;-67
2023/05/02 10:14:11;;;;;;;5.90;2.15;;;;;;;17.27;39.94;102354.00;3605920;39;20047;-66
2023/05/02 10:17:25;;;;;;;3.75;1.92;;;;;;;17.66;37.36;102358.63;3611168;39;20070;-67
2023/05/02 10:20:02;;;;;;;4.13;2.30;;;;;;;18.00;37.09;102353.66;3598681;39;20354;-68
2023/05/02 10:22:30;;;;;;;5.57;2.08;;;;;;;18.02;37.31;102355.31;3607420;39;20051;-67
2023/05/02 10:24:59;;;;;;;4.25;1.95;;;;;;;17.77;35.93;102358.81;3609962;39;20058;-67
2023/05/02 10:27:25;;;;;;;5.18;2.17;;;;;;;17.71;36.70;102359.22;3608793;39;20131;-66
2023/05/02 10:29:51;;;;;;;4.88;2.10;;;;;;;18.01;35.44;102352.66;3609044;39;20197;-69
2023/05/02 10:32:17;;;;;;;7.88;2.53;;;;;;;18.48;37.62;102359.38;3598756;39;20374;-68
2023/05/02 10:34:45;;;;;;;6.35;2.45;;;;;;;18.58;36.59;102371.34;3609895;39;21009;-68
2023/05/02 10:37:11;;;;;;;5.15;2.67;;;;;;;18.51;38.44;102370.03;3609531;39;20055;-68
2023/05/02 10:39:37;;;;;;;9.60;2.40;;;;;;;18.16;37.13;102370.66;3605534;39;20050;-68
2023/05/02 10:42:06;;;;;;;5.00;2.40;;;;;;;17.72;39.33;102374.53;3610455;39;20051;-68
2023/05/02 10:44:40;;;;;;;5.53;2.33;;;;;;;17.30;39.82;102370.13;3609391;39;20067;-68
2023/05/02 10:47:25;;;;;;;6.68;2.40;;;;;;;16.98;39.22;102369.50;3607467;39;20063;-67
2023/05/02 10:50:02;;;;;;;5.93;2.35;;;;;;;16.77;39.86;102361.72;3608906;39;20071;-67
2023/05/02 10:52:37;;;;;;;8.07;2.85;;;;;;;17.18;39.99;102377.22;3596932;39;20066;-68
2023/05/02 10:55:22;;;;;;;4.90;2.15;;;;;;;17.23;40.85;102371.50;3609137;39;20267;-68
2023/05/02 10:58:00;;;;;;;6.15;2.60;;;;;;;17.12;39.35;102367.63;3608382;39;20057;-68
2023/05/02 11:00:32;;;;;;;5.50;2.50;;;;;;;17.10;39.29;102379.59;3610238;39;20151;-68
2023/05/02 11:02:59;;;;;;;6.40;2.38;;;;;;;17.08;38.87;102379.66;3601831;39;20058;-68
2023/05/02 11:05:26;;;;;;;4.13;2.40;;;;;;;16.97;38.65;102384.03;3609036;39;20086;-68
2023/05/02 11:08:19;;;;;;;9.13;2.58;;;;;;;16.98;40.18;102389.38;3608150;39;20116;-68
2023/05/02 11:10:45;;;;;;;6.57;2.40;;;;;;;17.45;39.20;102380.00;3607735;39;20056;-68
2023/05/02 11:13:11;;;;;;;5.90;2.47;;;;;;;17.65;38.28;102375.94;3608906;39;20094;-68
2023/05/02 11:15:39;;;;;;;5.30;2.50;;;;;;;17.75;36.85;102382.50;3609853;39;20120;-69
2023/05/02 11:18:13;;;;;;;4.13;2.30;;;;;;;17.51;36.12;102384.16;3608578;39;20108;-67
2023/05/02 11:20:40;;;;;;;;;;;;;;;17.58;36.85;102374.59;3607385;39;20491;-67
2023/05/02 11:23:20;;;;;;;7.15;2.30;;;;;;;18.23;36.59;102377.41;3608251;39;19944;-67
2023/05/02 11:25:59;;;;;;;9.23;3.50;;;;;;;18.96;36.57;102373.19;3597440;39;20061;-67
2023/05/02 11:28:39;;;;;;;6.07;2.25;;;;;;;19.56;34.49;102380.56;3609360;39;20055;-67
2023/05/02 11:31:26;;;;;;;4.25;2.25;;;;;;;19.53;35.45;102375.31;3608829;39;20050;-67